Accueil
METAR-TAF:

METAR-TAF

Aéroports :

Aéroport de Jijel - Ferhat Abbas

Jijel, Algérie

latitude: 36-53N, longitude: 005-49E, altitude: 2 m

Observation

Le bulletin a été fait il y a 31 minutes, à 23:00 UTC
Vent 4 kt de ouest/nord-ouest
Température 26°C
Humidité 89%
Pression 1013 hPa
Visibilité 10 km ou plus
Quelques nuages à une hauteur de 2000 ft
Nuages fragmentés à une hauteur de 3300 ft

METAR: DAAV 032300Z 29004KT 9999 FEW020 BKN033 26/24 Q1013

Heure: 00:31 (23:31 UTC)

Prévision

Le bulletin a été fait il y a 6 heures et 31 minutes, à 17:00 UTC
Prévision valable du 03 à 18 UTC au 04 à 18 UTC
Vent 8 kt de nord/nord-est
Visibilité: 8000 m
Quelques nuages à une hauteur de 2000 ft
Probabilité 30% :
Temporairement
du 03 à 18 UTC au 03 à 22 UTC
Quelques nuages à une hauteur de 1500 ft, Cumulus congestus.

TAF: DAAV 031700Z 0318/0418 02008KT 8000 FEW020 PROB30 TEMPO 0318/0322 FEW015TCU

Observations et prévisions météorologiques de plus de 4000 aéroports (messages METAR et TAF).

Les stations disponibles sont représentées par des disques jaunes et rouges sur la carte.

Passer la souris dessus pour voir le nom de la station.

Cliquer dessus pour voir les observations et prévisions météorologiques.

Pour changer de carte: cliquez sur les boutons verts avec une croix noire pour zoomer, sur le bouton vert avec un tiret pour effectuer un zoom arrière, ou sur les flèches vertes pour les cartes adjacentes.


METAR-TAF: